sensor_id;sensor_type;location;lat;lon;timestamp;pressure;altitude;pressure_sealevel;temperature;humidity
73824;BME280;62154;54.914;73.444;2023-02-28T00:01:34;100209.59;;;-3.65;100.00
73824;BME280;62154;54.914;73.444;2023-02-28T00:04:02;100175.22;;;-3.85;100.00
73824;BME280;62154;54.914;73.444;2023-02-28T00:06:29;100186.97;;;-3.75;100.00
73824;BME280;62154;54.914;73.444;2023-02-28T00:08:57;100204.09;;;-3.53;100.00
73824;BME280;62154;54.914;73.444;2023-02-28T00:11:24;100205.09;;;-3.54;100.00
73824;BME280;62154;54.914;73.444;2023-02-28T00:13:52;100210.38;;;-3.53;100.00
73824;BME280;62154;54.914;73.444;2023-02-28T00:16:21;100212.69;;;-3.48;100.00
73824;BME280;62154;54.914;73.444;2023-02-28T00:18:49;100214.53;;;-3.49;100.00
73824;BME280;62154;54.914;73.444;2023-02-28T00:21:23;100208.13;;;-3.48;100.00
73824;BME280;62154;54.914;73.444;2023-02-28T00:23:51;100210.84;;;-3.48;100.00
73824;BME280;62154;54.914;73.444;2023-02-28T00:26:19;100210.84;;;-3.48;100.00
73824;BME280;62154;54.914;73.444;2023-02-28T00:28:52;100211.28;;;-3.42;100.00
73824;BME280;62154;54.914;73.444;2023-02-28T00:31:20;100141.00;;;-3.86;100.00
73824;BME280;62154;54.914;73.444;2023-02-28T00:33:53;100194.56;;;-3.48;100.00
73824;BME280;62154;54.914;73.444;2023-02-28T00:36:22;100190.59;;;-3.44;100.00
73824;BME280;62154;54.914;73.444;2023-02-28T00:38:49;100138.28;;;-3.65;100.00
73824;BME280;62154;54.914;73.444;2023-02-28T00:41:17;100145.56;;;-3.66;100.00
73824;BME280;62154;54.914;73.444;2023-02-28T00:43:49;100181.22;;;-3.39;100.00
73824;BME280;62154;54.914;73.444;2023-02-28T00:46:17;100174.31;;;-3.44;100.00
73824;BME280;62154;54.914;73.444;2023-02-28T00:48:46;100137.75;;;-3.59;100.00
73824;BME280;62154;54.914;73.444;2023-02-28T00:51:15;100077.41;;;-3.92;100.00
73824;BME280;62154;54.914;73.444;2023-02-28T00:53:42;100121.03;;;-3.64;100.00
73824;BME280;62154;54.914;73.444;2023-02-28T00:56:10;100172.34;;;-3.41;100.00
73824;BME280;62154;54.914;73.444;2023-02-28T00:58:38;100154.91;;;-3.49;100.00
73824;BME280;62154;54.914;73.444;2023-02-28T01:01:12;100149.41;;;-3.37;100.00
73824;BME280;62154;54.914;73.444;2023-02-28T01:03:39;100147.66;;;-3.38;100.00
73824;BME280;62154;54.914;73.444;2023-02-28T01:06:09;100139.81;;;-3.41;100.00
73824;BME280;62154;54.914;73.444;2023-02-28T01:08:38;100142.59;;;-3.32;100.00
73824;BME280;62154;54.914;73.444;2023-02-28T01:11:12;100142.44;;;-3.30;100.00
73824;BME280;62154;54.914;73.444;2023-02-28T01:13:45;100130.00;;;-3.33;100.00
73824;BME280;62154;54.914;73.444;2023-02-28T01:16:18;100093.84;;;-3.53;100.00
73824;BME280;62154;54.914;73.444;2023-02-28T01:18:56;100138.31;;;-3.24;100.00
73824;BME280;62154;54.914;73.444;2023-02-28T01:21:25;100121.94;;;-3.23;100.00
73824;BME280;62154;54.914;73.444;2023-02-28T01:23:56;100118.78;;;-3.18;100.00
73824;BME280;62154;54.914;73.444;2023-02-28T01:26:34;100106.81;;;-3.16;100.00
73824;BME280;62154;54.914;73.444;2023-02-28T01:29:07;100102.81;;;-3.21;100.00
73824;BME280;62154;54.914;73.444;2023-02-28T01:31:35;100116.81;;;-3.16;100.00
73824;BME280;62154;54.914;73.444;2023-02-28T01:34:03;100076.34;;;-3.39;100.00
73824;BME280;62154;54.914;73.444;2023-02-28T01:36:30;100106.53;;;-3.13;100.00
73824;BME280;62154;54.914;73.444;2023-02-28T01:38:58;100104.69;;;-3.12;100.00
73824;BME280;62154;54.914;73.444;2023-02-28T01:41:30;100109.09;;;-3.11;100.00
73824;BME280;62154;54.914;73.444;2023-02-28T01:47:27;100094.13;;;-3.15;100.00
73824;BME280;62154;54.914;73.444;2023-02-28T01:50:21;100090.53;;;-3.16;100.00
73824;BME280;62154;54.914;73.444;2023-02-28T01:52:54;100091.97;;;-3.21;100.00
73824;BME280;62154;54.914;73.444;2023-02-28T01:55:30;100092.53;;;-3.18;100.00
73824;BME280;62154;54.914;73.444;2023-02-28T01:58:02;100081.69;;;-3.18;100.00
73824;BME280;62154;54.914;73.444;2023-02-28T02:00:31;100074.25;;;-3.25;100.00
73824;BME280;62154;54.914;73.444;2023-02-28T02:03:07;100076.25;;;-3.28;100.00
73824;BME280;62154;54.914;73.444;2023-02-28T02:05:46;100090.53;;;-3.25;100.00
73824;BME280;62154;54.914;73.444;2023-02-28T02:08:21;100041.34;;;-3.52;100.00
73824;BME280;62154;54.914;73.444;2023-02-28T02:11:00;100078.81;;;-3.26;100.00
73824;BME280;62154;54.914;73.444;2023-02-28T02:16:59;100072.41;;;-3.25;100.00
73824;BME280;62154;54.914;73.444;2023-02-28T02:34:18;100051.69;;;-3.26;100.00
73824;BME280;62154;54.914;73.444;2023-02-28T02:37:40;100066.84;;;-3.14;100.00
73824;BME280;62154;54.914;73.444;2023-02-28T02:43:01;100056.72;;;-3.21;100.00
73824;BME280;62154;54.914;73.444;2023-02-28T02:45:40;100048.72;;;-3.23;100.00
73824;BME280;62154;54.914;73.444;2023-02-28T02:48:13;100042.56;;;-3.25;100.00
73824;BME280;62154;54.914;73.444;2023-02-28T02:51:03;100043.97;;;-3.31;100.00
73824;BME280;62154;54.914;73.444;2023-02-28T02:53:56;100040.59;;;-3.23;100.00
73824;BME280;62154;54.914;73.444;2023-02-28T02:56:28;100043.00;;;-3.20;100.00
73824;BME280;62154;54.914;73.444;2023-02-28T02:59:06;100041.44;;;-3.22;100.00
73824;BME280;62154;54.914;73.444;2023-02-28T03:01:38;99999.13;;;-3.45;100.00
73824;BME280;62154;54.914;73.444;2023-02-28T03:04:18;100033.00;;;-3.29;100.00
73824;BME280;62154;54.914;73.444;2023-02-28T03:06:47;100026.31;;;-3.25;100.00
73824;BME280;62154;54.914;73.444;2023-02-28T03:09:15;100025.13;;;-3.32;100.00
73824;BME280;62154;54.914;73.444;2023-02-28T03:11:52;99995.28;;;-3.52;100.00
73824;BME280;62154;54.914;73.444;2023-02-28T03:14:37;100027.41;;;-3.37;100.00
73824;BME280;62154;54.914;73.444;2023-02-28T03:29:08;99898.81;;;-4.34;100.00
73824;BME280;62154;54.914;73.444;2023-02-28T03:32:05;99999.28;;;-3.56;100.00
73824;BME280;62154;54.914;73.444;2023-02-28T03:34:49;99994.97;;;-3.58;100.00
73824;BME280;62154;54.914;73.444;2023-02-28T03:37:22;99990.13;;;-3.55;100.00
73824;BME280;62154;54.914;73.444;2023-02-28T03:40:01;99989.09;;;-3.64;100.00
73824;BME280;62154;54.914;73.444;2023-02-28T03:42:35;99989.44;;;-3.57;100.00
73824;BME280;62154;54.914;73.444;2023-02-28T03:45:25;99984.28;;;-3.60;100.00
73824;BME280;62154;54.914;73.444;2023-02-28T03:51:16;99980.72;;;-3.61;100.00
73824;BME280;62154;54.914;73.444;2023-02-28T03:54:02;99968.88;;;-3.59;100.00
73824;BME280;62154;54.914;73.444;2023-02-28T03:56:42;99968.59;;;-3.56;100.00
73824;BME280;62154;54.914;73.444;2023-02-28T03:59:25;99946.16;;;-3.78;100.00
73824;BME280;62154;54.914;73.444;2023-02-28T04:02:05;99964.47;;;-3.51;100.00
73824;BME280;62154;54.914;73.444;2023-02-28T04:04:38;99956.63;;;-3.54;100.00
73824;BME280;62154;54.914;73.444;2023-02-28T04:07:12;99951.78;;;-3.50;100.00
73824;BME280;62154;54.914;73.444;2023-02-28T04:09:40;99951.22;;;-3.44;100.00
73824;BME280;62154;54.914;73.444;2023-02-28T04:12:08;99945.50;;;-3.41;100.00
73824;BME280;62154;54.914;73.444;2023-02-28T04:14:35;99940.66;;;-3.37;100.00
73824;BME280;62154;54.914;73.444;2023-02-28T04:17:03;99944.94;;;-3.35;100.00
73824;BME280;62154;54.914;73.444;2023-02-28T04:19:41;99944.53;;;-3.30;100.00
73824;BME280;62154;54.914;73.444;2023-02-28T04:22:10;99908.84;;;-3.45;100.00
73824;BME280;62154;54.914;73.444;2023-02-28T04:24:48;99942.84;;;-3.21;100.00
73824;BME280;62154;54.914;73.444;2023-02-28T04:27:15;99933.28;;;-3.25;100.00
73824;BME280;62154;54.914;73.444;2023-02-28T04:29:43;99936.41;;;-3.20;100.00
73824;BME280;62154;54.914;73.444;2023-02-28T04:32:21;99901.72;;;-3.36;100.00
73824;BME280;62154;54.914;73.444;2023-02-28T04:34:49;99892.44;;;-3.44;100.00
73824;BME280;62154;54.914;73.444;2023-02-28T04:37:16;99916.69;;;-3.32;100.00
73824;BME280;62154;54.914;73.444;2023-02-28T04:39:44;99879.75;;;-3.53;100.00
73824;BME280;62154;54.914;73.444;2023-02-28T04:42:12;99926.41;;;-3.20;100.00
73824;BME280;62154;54.914;73.444;2023-02-28T04:44:40;99918.44;;;-3.12;100.00
73824;BME280;62154;54.914;73.444;2023-02-28T04:47:18;99927.00;;;-3.06;100.00
73824;BME280;62154;54.914;73.444;2023-02-28T04:49:56;99920.56;;;-3.15;100.00
73824;BME280;62154;54.914;73.444;2023-02-28T04:52:27;99923.56;;;-3.08;100.00
73824;BME280;62154;54.914;73.444;2023-02-28T04:54:55;99915.28;;;-3.07;100.00
73824;BME280;62154;54.914;73.444;2023-02-28T04:57:33;99871.88;;;-3.17;100.00
73824;BME280;62154;54.914;73.444;2023-02-28T05:00:00;99913.69;;;-2.90;100.00
73824;BME280;62154;54.914;73.444;2023-02-28T05:02:34;99912.97;;;-2.92;100.00
73824;BME280;62154;54.914;73.444;2023-02-28T05:05:03;99898.41;;;-2.91;100.00
73824;BME280;62154;54.914;73.444;2023-02-28T05:07:31;99894.41;;;-2.87;100.00
73824;BME280;62154;54.914;73.444;2023-02-28T05:10:03;99903.84;;;-2.81;100.00
73824;BME280;62154;54.914;73.444;2023-02-28T05:12:44;99891.84;;;-2.79;100.00
73824;BME280;62154;54.914;73.444;2023-02-28T05:15:13;99859.44;;;-2.90;100.00
73824;BME280;62154;54.914;73.444;2023-02-28T05:17:46;99888.56;;;-2.82;100.00
73824;BME280;62154;54.914;73.444;2023-02-28T05:20:13;99884.69;;;-2.80;100.00
73824;BME280;62154;54.914;73.444;2023-02-28T05:22:46;99876.09;;;-2.75;100.00
73824;BME280;62154;54.914;73.444;2023-02-28T05:25:18;99858.97;;;-2.75;100.00
73824;BME280;62154;54.914;73.444;2023-02-28T05:27:45;99859.56;;;-2.82;100.00
73824;BME280;62154;54.914;73.444;2023-02-28T05:30:13;99864.09;;;-2.72;100.00
73824;BME280;62154;54.914;73.444;2023-02-28T05:32:41;99855.78;;;-2.61;100.00
73824;BME280;62154;54.914;73.444;2023-02-28T05:35:20;99853.50;;;-2.56;100.00
73824;BME280;62154;54.914;73.444;2023-02-28T05:37:50;99850.31;;;-2.51;100.00
73824;BME280;62154;54.914;73.444;2023-02-28T05:40:28;99840.06;;;-2.57;100.00
73824;BME280;62154;54.914;73.444;2023-02-28T05:43:10;99841.50;;;-2.53;100.00
73824;BME280;62154;54.914;73.444;2023-02-28T05:45:37;99832.31;;;-2.52;100.00
73824;BME280;62154;54.914;73.444;2023-02-28T05:48:05;99831.88;;;-2.48;100.00
73824;BME280;62154;54.914;73.444;2023-02-28T05:50:35;99806.63;;;-2.58;100.00
73824;BME280;62154;54.914;73.444;2023-02-28T05:53:13;99833.69;;;-2.38;100.00
73824;BME280;62154;54.914;73.444;2023-02-28T05:55:41;99831.44;;;-2.43;100.00
73824;BME280;62154;54.914;73.444;2023-02-28T05:58:13;99781.41;;;-2.68;100.00
73824;BME280;62154;54.914;73.444;2023-02-28T06:00:50;99805.53;;;-2.37;100.00
73824;BME280;62154;54.914;73.444;2023-02-28T06:03:21;99764.41;;;-2.70;100.00
73824;BME280;62154;54.914;73.444;2023-02-28T06:05:52;99794.88;;;-2.49;100.00
73824;BME280;62154;54.914;73.444;2023-02-28T06:08:23;99790.72;;;-2.43;100.00
73824;BME280;62154;54.914;73.444;2023-02-28T06:10:51;99785.84;;;-2.39;100.00
73824;BME280;62154;54.914;73.444;2023-02-28T06:13:25;99772.97;;;-2.37;100.00
73824;BME280;62154;54.914;73.444;2023-02-28T06:16:01;99777.78;;;-2.31;100.00
73824;BME280;62154;54.914;73.444;2023-02-28T06:18:29;99774.06;;;-2.30;100.00
73824;BME280;62154;54.914;73.444;2023-02-28T06:21:01;99740.22;;;-2.36;100.00
73824;BME280;62154;54.914;73.444;2023-02-28T06:23:28;99759.00;;;-2.24;100.00
73824;BME280;62154;54.914;73.444;2023-02-28T06:25:56;99753.34;;;-2.31;100.00
73824;BME280;62154;54.914;73.444;2023-02-28T06:28:32;99760.72;;;-2.23;100.00
73824;BME280;62154;54.914;73.444;2023-02-28T06:31:12;99720.13;;;-2.43;100.00
73824;BME280;62154;54.914;73.444;2023-02-28T06:34:04;99751.53;;;-2.13;100.00
73824;BME280;62154;54.914;73.444;2023-02-28T06:36:42;99695.63;;;-2.33;100.00
73824;BME280;62154;54.914;73.444;2023-02-28T06:39:15;99735.69;;;-1.99;100.00
73824;BME280;62154;54.914;73.444;2023-02-28T06:41:44;99706.28;;;-2.04;100.00
73824;BME280;62154;54.914;73.444;2023-02-28T06:44:16;99737.94;;;-1.94;100.00
73824;BME280;62154;54.914;73.444;2023-02-28T06:46:45;99735.94;;;-1.92;100.00
73824;BME280;62154;54.914;73.444;2023-02-28T06:49:12;99697.59;;;-2.07;100.00
73824;BME280;62154;54.914;73.444;2023-02-28T06:51:40;99703.25;;;-2.19;100.00
73824;BME280;62154;54.914;73.444;2023-02-28T06:54:08;99716.81;;;-2.01;100.00
73824;BME280;62154;54.914;73.444;2023-02-28T06:56:46;99688.06;;;-2.11;100.00
73824;BME280;62154;54.914;73.444;2023-02-28T06:59:24;99654.44;;;-2.28;100.00
73824;BME280;62154;54.914;73.444;2023-02-28T07:01:56;99705.66;;;-1.98;100.00
73824;BME280;62154;54.914;73.444;2023-02-28T07:04:29;99698.41;;;-1.89;100.00
73824;BME280;62154;54.914;73.444;2023-02-28T07:06:57;99698.66;;;-2.00;100.00
73824;BME280;62154;54.914;73.444;2023-02-28T07:09:32;99674.47;;;-2.11;100.00
73824;BME280;62154;54.914;73.444;2023-02-28T07:12:00;99645.91;;;-2.34;100.00
73824;BME280;62154;54.914;73.444;2023-02-28T07:14:32;99692.53;;;-2.02;100.00
73824;BME280;62154;54.914;73.444;2023-02-28T07:16:59;99688.09;;;-2.03;100.00
73824;BME280;62154;54.914;73.444;2023-02-28T07:19:40;99683.38;;;-2.01;100.00
73824;BME280;62154;54.914;73.444;2023-02-28T07:22:08;99649.22;;;-2.22;100.00
73824;BME280;62154;54.914;73.444;2023-02-28T07:24:36;99684.84;;;-2.07;100.00
73824;BME280;62154;54.914;73.444;2023-02-28T07:27:08;99685.72;;;-2.06;100.00
73824;BME280;62154;54.914;73.444;2023-02-28T07:29:36;99626.50;;;-2.39;100.00
73824;BME280;62154;54.914;73.444;2023-02-28T07:32:04;99627.97;;;-2.44;100.00
73824;BME280;62154;54.914;73.444;2023-02-28T07:34:37;99666.22;;;-2.20;100.00
73824;BME280;62154;54.914;73.444;2023-02-28T07:37:05;99661.75;;;-2.29;100.00
73824;BME280;62154;54.914;73.444;2023-02-28T07:39:43;99659.03;;;-2.29;100.00
73824;BME280;62154;54.914;73.444;2023-02-28T07:42:13;99654.03;;;-2.16;100.00
73824;BME280;62154;54.914;73.444;2023-02-28T07:44:43;99657.84;;;-2.08;100.00
73824;BME280;62154;54.914;73.444;2023-02-28T07:47:16;99643.72;;;-2.12;100.00
73824;BME280;62154;54.914;73.444;2023-02-28T07:49:54;99661.28;;;-2.06;100.00
73824;BME280;62154;54.914;73.444;2023-02-28T07:52:26;99606.03;;;-2.33;100.00
73824;BME280;62154;54.914;73.444;2023-02-28T07:55:05;99633.41;;;-2.08;100.00
73824;BME280;62154;54.914;73.444;2023-02-28T07:57:36;99620.69;;;-2.26;100.00
73824;BME280;62154;54.914;73.444;2023-02-28T08:00:09;99639.06;;;-2.20;100.00
73824;BME280;62154;54.914;73.444;2023-02-28T08:02:41;99641.09;;;-2.22;100.00
73824;BME280;62154;54.914;73.444;2023-02-28T08:05:09;99628.59;;;-2.15;100.00
73824;BME280;62154;54.914;73.444;2023-02-28T08:07:37;99636.75;;;-2.15;100.00
73824;BME280;62154;54.914;73.444;2023-02-28T08:10:05;99624.66;;;-2.20;100.00
73824;BME280;62154;54.914;73.444;2023-02-28T08:12:32;99637.19;;;-2.19;100.00
73824;BME280;62154;54.914;73.444;2023-02-28T08:15:10;99618.69;;;-2.24;100.00
73824;BME280;62154;54.914;73.444;2023-02-28T08:17:38;99575.19;;;-2.50;100.00
73824;BME280;62154;54.914;73.444;2023-02-28T08:20:07;99575.56;;;-2.45;100.00
73824;BME280;62154;54.914;73.444;2023-02-28T08:22:37;99620.69;;;-2.26;100.00
73824;BME280;62154;54.914;73.444;2023-02-28T08:25:05;99614.56;;;-2.28;100.00
73824;BME280;62154;54.914;73.444;2023-02-28T08:27:34;99617.97;;;-2.26;100.00
73824;BME280;62154;54.914;73.444;2023-02-28T08:30:03;99583.00;;;-2.29;100.00
73824;BME280;62154;54.914;73.444;2023-02-28T08:32:42;99599.88;;;-2.17;100.00
73824;BME280;62154;54.914;73.444;2023-02-28T08:35:20;99602.97;;;-2.12;100.00
73824;BME280;62154;54.914;73.444;2023-02-28T08:37:50;99573.31;;;-2.05;100.00
73824;BME280;62154;54.914;73.444;2023-02-28T08:40:18;99599.22;;;-1.93;100.00
73824;BME280;62154;54.914;73.444;2023-02-28T08:42:51;99593.16;;;-1.87;100.00
73824;BME280;62154;54.914;73.444;2023-02-28T08:45:19;99580.91;;;-1.91;100.00
73824;BME280;62154;54.914;73.444;2023-02-28T08:47:47;99598.22;;;-1.92;100.00
73824;BME280;62154;54.914;73.444;2023-02-28T08:50:15;99585.16;;;-1.88;100.00
73824;BME280;62154;54.914;73.444;2023-02-28T08:52:53;99577.06;;;-2.06;100.00
73824;BME280;62154;54.914;73.444;2023-02-28T08:55:21;99579.00;;;-1.99;100.00
73824;BME280;62154;54.914;73.444;2023-02-28T08:57:49;99579.66;;;-1.97;100.00
73824;BME280;62154;54.914;73.444;2023-02-28T09:00:20;99547.88;;;-2.04;100.00
73824;BME280;62154;54.914;73.444;2023-02-28T09:02:59;99565.25;;;-1.97;100.00
73824;BME280;62154;54.914;73.444;2023-02-28T09:05:26;99559.47;;;-1.94;100.00
73824;BME280;62154;54.914;73.444;2023-02-28T09:08:06;99556.47;;;-1.91;100.00
73824;BME280;62154;54.914;73.444;2023-02-28T09:10:34;99544.34;;;-1.97;100.00
73824;BME280;62154;54.914;73.444;2023-02-28T09:13:02;99540.25;;;-2.01;100.00
73824;BME280;62154;54.914;73.444;2023-02-28T09:15:30;99547.88;;;-2.04;100.00
73824;BME280;62154;54.914;73.444;2023-02-28T09:17:58;99541.44;;;-2.03;100.00
73824;BME280;62154;54.914;73.444;2023-02-28T09:20:39;99551.81;;;-1.99;100.00
73824;BME280;62154;54.914;73.444;2023-02-28T09:23:23;99550.81;;;-1.98;100.00
73824;BME280;62154;54.914;73.444;2023-02-28T09:26:01;99531.25;;;-2.01;100.00
73824;BME280;62154;54.914;73.444;2023-02-28T09:28:32;99531.91;;;-2.07;100.00
73824;BME280;62154;54.914;73.444;2023-02-28T09:31:15;99540.31;;;-2.19;100.00
73824;BME280;62154;54.914;73.444;2023-02-28T09:33:47;99534.16;;;-2.21;100.00
73824;BME280;62154;54.914;73.444;2023-02-28T09:36:25;99537.13;;;-2.14;100.00
73824;BME280;62154;54.914;73.444;2023-02-28T09:38:55;99488.78;;;-2.37;100.00
73824;BME280;62154;54.914;73.444;2023-02-28T09:41:25;99529.47;;;-2.10;100.00
73824;BME280;62154;54.914;73.444;2023-02-28T09:44:02;99512.53;;;-2.13;100.00
73824;BME280;62154;54.914;73.444;2023-02-28T09:46:40;99505.56;;;-2.07;100.00
73824;BME280;62154;54.914;73.444;2023-02-28T09:49:17;99501.81;;;-2.14;100.00
73824;BME280;62154;54.914;73.444;2023-02-28T09:52:28;99516.34;;;-1.97;100.00
73824;BME280;62154;54.914;73.444;2023-02-28T09:54:46;99478.84;;;-2.20;100.00
73824;BME280;62154;54.914;73.444;2023-02-28T09:57:32;99501.75;;;-1.96;100.00
73824;BME280;62154;54.914;73.444;2023-02-28T10:06:17;99497.31;;;-1.71;100.00
73824;BME280;62154;54.914;73.444;2023-02-28T10:09:14;99499.88;;;-1.61;100.00
73824;BME280;62154;54.914;73.444;2023-02-28T10:11:46;99469.78;;;-1.68;100.00
73824;BME280;62154;54.914;73.444;2023-02-28T10:14:17;99496.84;;;-1.50;100.00
73824;BME280;62154;54.914;73.444;2023-02-28T10:16:50;99484.81;;;-1.47;100.00
73824;BME280;62154;54.914;73.444;2023-02-28T10:22:20;99483.78;;;-1.54;100.00
73824;BME280;62154;54.914;73.444;2023-02-28T10:24:51;99478.81;;;-1.59;100.00
73824;BME280;62154;54.914;73.444;2023-02-28T10:27:24;99478.88;;;-1.51;100.00
73824;BME280;62154;54.914;73.444;2023-02-28T10:30:03;99488.38;;;-1.46;100.00
73824;BME280;62154;54.914;73.444;2023-02-28T10:32:36;99478.19;;;-1.44;100.00
73824;BME280;62154;54.914;73.444;2023-02-28T10:35:24;99480.41;;;-1.48;100.00
73824;BME280;62154;54.914;73.444;2023-02-28T10:37:57;99441.06;;;-1.70;100.00
73824;BME280;62154;54.914;73.444;2023-02-28T10:40:33;99471.91;;;-1.45;100.00
73824;BME280;62154;54.914;73.444;2023-02-28T10:43:06;99465.47;;;-1.44;100.00
73824;BME280;62154;54.914;73.444;2023-02-28T10:51:14;99471.78;;;-1.35;100.00
73824;BME280;62154;54.914;73.444;2023-02-28T10:53:54;99461.41;;;-1.32;100.00
73824;BME280;62154;54.914;73.444;2023-02-28T10:56:29;99464.97;;;-1.31;100.00
73824;BME280;62154;54.914;73.444;2023-02-28T10:59:19;99465.47;;;-1.36;100.00
73824;BME280;62154;54.914;73.444;2023-02-28T11:01:50;99452.69;;;-1.43;100.00
73824;BME280;62154;54.914;73.444;2023-02-28T11:07:21;99395.16;;;-1.82;100.00
73824;BME280;62154;54.914;73.444;2023-02-28T11:09:50;99459.31;;;-1.46;100.00
73824;BME280;62154;54.914;73.444;2023-02-28T11:15:21;99457.13;;;-1.51;100.00
73824;BME280;62154;54.914;73.444;2023-02-28T11:18:02;99461.84;;;-1.53;100.00
73824;BME280;62154;54.914;73.444;2023-02-28T11:20:49;99447.56;;;-1.55;100.00
73824;BME280;62154;54.914;73.444;2023-02-28T11:23:18;99416.59;;;-1.78;100.00
73824;BME280;62154;54.914;73.444;2023-02-28T11:25:52;99445.00;;;-1.65;100.00
73824;BME280;62154;54.914;73.444;2023-02-28T11:28:35;99422.03;;;-1.78;100.00
73824;BME280;62154;54.914;73.444;2023-02-28T11:36:23;99443.06;;;-1.81;100.00
73824;BME280;62154;54.914;73.444;2023-02-28T11:39:11;99415.13;;;-1.99;100.00
73824;BME280;62154;54.914;73.444;2023-02-28T11:41:51;99453.94;;;-1.81;100.00
73824;BME280;62154;54.914;73.444;2023-02-28T13:02:32;99470.78;;;-2.11;100.00
73824;BME280;62154;54.914;73.444;2023-02-28T13:05:00;99444.66;;;-2.31;100.00
73824;BME280;62154;54.914;73.444;2023-02-28T13:10:45;99470.53;;;-2.18;100.00
73824;BME280;62154;54.914;73.444;2023-02-28T13:13:20;99475.88;;;-2.08;100.00
73824;BME280;62154;54.914;73.444;2023-02-28T13:16:17;99472.97;;;-2.07;100.00
73824;BME280;62154;54.914;73.444;2023-02-28T13:18:46;99477.41;;;-2.06;100.00
73824;BME280;62154;54.914;73.444;2023-02-28T13:21:24;99477.41;;;-2.06;100.00
73824;BME280;62154;54.914;73.444;2023-02-28T13:24:08;99465.00;;;-2.08;100.00
73824;BME280;62154;54.914;73.444;2023-02-28T13:37:32;99479.16;;;-1.97;100.00
73824;BME280;62154;54.914;73.444;2023-02-28T13:40:29;99473.88;;;-1.98;100.00
73824;BME280;62154;54.914;73.444;2023-02-28T13:42:57;99477.31;;;-1.96;100.00
73824;BME280;62154;54.914;73.444;2023-02-28T13:45:27;99483.41;;;-1.94;100.00
73824;BME280;62154;54.914;73.444;2023-02-28T13:48:03;99470.44;;;-2.08;100.00
73824;BME280;62154;54.914;73.444;2023-02-28T13:50:32;99437.75;;;-2.25;100.00
73824;BME280;62154;54.914;73.444;2023-02-28T14:04:02;99495.50;;;-1.88;100.00
73824;BME280;62154;54.914;73.444;2023-02-28T14:06:48;99493.81;;;-1.89;100.00
73824;BME280;62154;54.914;73.444;2023-02-28T14:11:50;99441.91;;;-2.13;100.00
73824;BME280;62154;54.914;73.444;2023-02-28T14:17:05;99505.56;;;-1.81;100.00
73824;BME280;62154;54.914;73.444;2023-02-28T14:19:38;99502.66;;;-1.87;100.00
73824;BME280;62154;54.914;73.444;2023-02-28T14:22:32;99504.34;;;-1.86;100.00
73824;BME280;62154;54.914;73.444;2023-02-28T14:25:45;99501.31;;;-1.83;100.00
73824;BME280;62154;54.914;73.444;2023-02-28T14:28:43;99434.19;;;-2.25;100.00
73824;BME280;62154;54.914;73.444;2023-02-28T14:31:37;99500.78;;;-1.87;100.00
73824;BME280;62154;54.914;73.444;2023-02-28T14:34:19;99506.75;;;-1.83;100.00
73824;BME280;62154;54.914;73.444;2023-02-28T14:36:52;99501.84;;;-1.79;100.00
73824;BME280;62154;54.914;73.444;2023-02-28T14:39:29;99510.66;;;-1.77;100.00
73824;BME280;62154;54.914;73.444;2023-02-28T14:42:01;99497.06;;;-1.86;100.00
73824;BME280;62154;54.914;73.444;2023-02-28T14:44:42;99501.66;;;-1.78;100.00
73824;BME280;62154;54.914;73.444;2023-02-28T14:47:14;99438.66;;;-2.16;100.00
73824;BME280;62154;54.914;73.444;2023-02-28T14:49:45;99485.19;;;-1.76;100.00
73824;BME280;62154;54.914;73.444;2023-02-28T14:52:21;99491.81;;;-1.79;100.00
73824;BME280;62154;54.914;73.444;2023-02-28T14:55:04;99431.34;;;-2.16;100.00
73824;BME280;62154;54.914;73.444;2023-02-28T14:57:39;99426.44;;;-2.12;100.00
73824;BME280;62154;54.914;73.444;2023-02-28T15:00:16;99439.03;;;-2.03;100.00
73824;BME280;62154;54.914;73.444;2023-02-28T15:02:55;99359.53;;;-2.56;100.00
73824;BME280;62154;54.914;73.444;2023-02-28T15:05:32;99472.25;;;-1.83;100.00
73824;BME280;62154;54.914;73.444;2023-02-28T15:08:10;99484.53;;;-1.78;100.00
73824;BME280;62154;54.914;73.444;2023-02-28T15:10:58;99464.91;;;-1.90;100.00
73824;BME280;62154;54.914;73.444;2023-02-28T15:13:38;99508.81;;;-1.77;100.00
73824;BME280;62154;54.914;73.444;2023-02-28T15:16:33;99479.88;;;-1.86;100.00
73824;BME280;62154;54.914;73.444;2023-02-28T15:19:24;99492.69;;;-1.78;100.00
73824;BME280;62154;54.914;73.444;2023-02-28T15:22:06;99444.28;;;-2.09;100.00
73824;BME280;62154;54.914;73.444;2023-02-28T15:24:44;99501.50;;;-1.76;100.00
73824;BME280;62154;54.914;73.444;2023-02-28T15:27:18;99487.06;;;-1.77;100.00
73824;BME280;62154;54.914;73.444;2023-02-28T15:29:50;99488.63;;;-1.74;100.00
73824;BME280;62154;54.914;73.444;2023-02-28T15:32:32;99492.53;;;-1.69;100.00
73824;BME280;62154;54.914;73.444;2023-02-28T15:37:57;99491.53;;;-1.68;100.00
73824;BME280;62154;54.914;73.444;2023-02-28T15:40:35;99493.41;;;-1.68;100.00
73824;BME280;62154;54.914;73.444;2023-02-28T15:43:17;99493.94;;;-1.65;100.00
73824;BME280;62154;54.914;73.444;2023-02-28T15:45:50;99417.66;;;-2.06;100.00
73824;BME280;62154;54.914;73.444;2023-02-28T15:48:23;99489.00;;;-1.61;100.00
73824;BME280;62154;54.914;73.444;2023-02-28T15:51:07;99491.03;;;-1.63;100.00
73824;BME280;62154;54.914;73.444;2023-02-28T15:53:46;99476.44;;;-1.62;100.00
73824;BME280;62154;54.914;73.444;2023-02-28T15:56:26;99490.03;;;-1.62;100.00
73824;BME280;62154;54.914;73.444;2023-02-28T15:58:59;99486.28;;;-1.61;100.00
73824;BME280;62154;54.914;73.444;2023-02-28T16:01:30;99481.88;;;-1.62;100.00
73824;BME280;62154;54.914;73.444;2023-02-28T16:04:19;99441.84;;;-1.86;100.00
73824;BME280;62154;54.914;73.444;2023-02-28T16:09:26;99435.56;;;-1.87;100.00
73824;BME280;62154;54.914;73.444;2023-02-28T16:12:00;99425.19;;;-1.91;100.00
73824;BME280;62154;54.914;73.444;2023-02-28T16:14:32;99425.03;;;-1.90;100.00